Flight Track Log - Related Links

Times and Time Zones

All times are in EDT time to prevent confusion due to time zone crossing. See the DAL4165 flight status page for this flight to view local times or setup timezone preferences in your user account.

Time Position Orientation Groundspeed Altitude Reporting Facility
EDT Latitude Longitude Course Direction KTS MPH feet Rate Location/Type
Tue 07:12:36 AM 42.9500 -71.4167 270° West 157 181 1,000  Level KA90
Tue 07:13:24 AM 42.9833 -71.4000 20° North 192 221 2,300 1,964 Climbing KA90
Tue 07:15:00 AM 42.9417 -71.8248 279° West  Level FlightAware Approximate
Tue 07:15:21 AM 43.0911 -71.3314 25° Northeast 246 283 6,400  Level Boston Center
Tue 07:16:00 AM 42.9500 -71.9557 270° West  Level FlightAware Approximate
Tue 07:16:21 AM 43.1564 -71.3983 323° Northwest 261 300 8,500  Level Boston Center
Tue 07:17:00 AM 42.9501 -72.0876 270° West  Level FlightAware Approximate
Tue 07:17:21 AM 43.1758 -71.4978 285° West 267 307 10,700  Level Boston Center
Tue 07:18:21 AM 43.1769 -71.6086 271° West 282 325 12,700 1,950 Climbing Boston Center
Tue 07:19:21 AM 43.1797 -71.7169 272° West 287 330 14,600 1,700 Climbing Boston Center
Tue 07:20:21 AM 43.1803 -71.8308 270° West 293 337 16,100 1,250 Climbing Boston Center
Tue 07:21:21 AM 43.1808 -71.9447 270° West 299 344 17,100 750 Climbing Boston Center
Tue 07:22:21 AM 43.1833 -72.0300 272° West 317 365 17,600 850 Climbing Boston Center
Tue 07:23:21 AM 43.1858 -72.1925 271° West 328 377 18,800 950 Climbing Boston Center
Tue 07:24:21 AM 43.1861 -72.2806 270° West 328 377 19,500 650 Climbing Boston Center
Tue 07:25:21 AM 43.1903 -72.4344 272° West 328 377 20,100 550 Climbing Boston Center
Tue 07:26:21 AM 43.1903 -72.5683 270° West 339 390 20,600 500 Climbing Boston Center
Tue 07:27:21 AM 43.1919 -72.6992 271° West 346 398 21,100 500 Climbing Boston Center
Tue 07:28:21 AM 43.1939 -72.8331 271° West 351 404 21,600 450 Climbing Boston Center
Tue 07:29:21 AM 43.1744 -72.9639 259° West 351 404 22,000 500 Climbing Boston Center
Tue 07:30:21 AM 43.1406 -73.0861 249° West 345 397 22,600 550 Climbing Boston Center
Tue 07:31:21 AM 43.1064 -73.2108 249° West 345 397 23,100 458 Climbing Boston Center
Tue 07:32:45 AM 43.0678 -73.3608 251° West 351 404 23,700 667 Climbing Boston Center
Tue 07:33:45 AM 43.0206 -73.5078 246° West 351 404 24,700 1,000 Climbing Boston Center
Tue 07:34:45 AM 43.0256 -73.6386 273° West 343 395 25,700 900 Climbing Boston Center
Tue 07:35:45 AM 43.0303 -73.7694 273° West 348 400 26,500 650 Climbing Boston Center
Tue 07:36:45 AM 43.0392 -73.9058 275° West 348 400 27,000 500 Climbing Boston Center
Tue 07:37:45 AM 43.0478 -74.0425 275° West 355 409 27,500 500 Climbing Boston Center
Tue 07:38:45 AM 43.0583 -74.1792 276° West 361 415 28,000 250 Climbing Boston Center
Tue 07:39:45 AM 43.0664 -74.3244 274° West 373 429 28,000  Level Boston Center
Tue 07:40:45 AM 43.0744 -74.4667 274° West 378 435 28,000  Level Boston Center
Tue 07:41:46 AM 43.0822 -74.6033 275° West 378 435 28,000  Level Boston Center
Tue 07:42:45 AM 43.0900 -74.7403 274° West 368 423 28,000  Level Boston Center
Tue 07:43:57 AM 43.0975 -74.8769 274° West 362 417 28,000  Level Boston Center
Tue 07:44:57 AM 43.1064 -75.0453 274° West 368 423 28,000  Level Boston Center
Tue 07:45:57 AM 43.1136 -75.1819 274° West 368 423 28,000  Level Boston Center
Tue 07:46:57 AM 43.1206 -75.3189 274° West 368 423 28,000  Level Boston Center
Tue 07:47:57 AM 43.1272 -75.4614 274° West 368 423 28,000  Level Boston Center
Tue 07:48:57 AM 43.1358 -75.6128 275° West 368 423 28,000  Level Boston Center
Tue 07:49:57 AM 43.1419 -75.7583 273° West 368 423 28,000 -50 Level Boston Center
Tue 07:50:57 AM 43.1442 -75.8978 271° West 368 423 27,900  Descending Boston Center
Tue 07:51:57 AM 43.1233 -76.0333 258° West 368 423 28,000 34 Climbing Boston Center
Tue 07:53:56 AM 43.0792 -76.3019 257° West 364 419 28,000  Level Cleveland Center
Tue 07:54:56 AM 43.0717 -76.4392 266° West 364 419 28,000  Level Cleveland Center
Tue 07:55:56 AM 43.0642 -76.5789 266° West 364 419 28,000  Level Cleveland Center
Tue 07:56:56 AM 43.0561 -76.7131 265° West 364 419 28,000  Level Cleveland Center
Tue 07:57:56 AM 43.0461 -76.8500 264° West 369 425 28,000  Level Cleveland Center
Tue 07:58:56 AM 43.0400 -76.9839 266° West 369 425 28,000  Level Cleveland Center
Tue 07:59:56 AM 43.0317 -77.1208 265° West 369 425 28,000  Level Cleveland Center
Tue 08:00:56 AM 43.0250 -77.2547 266° West 369 425 28,000  Level Cleveland Center
Tue 08:01:56 AM 43.0164 -77.3886 265° West 369 425 28,000  Level Cleveland Center
Tue 08:02:56 AM 43.0075 -77.5225 265° West 369 425 28,000  Level Cleveland Center
Tue 08:03:56 AM 42.9983 -77.6478 264° West 369 425 28,000  Level Cleveland Center
Tue 08:04:56 AM 42.9911 -77.7844 266° West 369 425 28,000  Level Cleveland Center
Tue 08:05:56 AM 42.9819 -77.9211 265° West 369 425 28,000  Level Cleveland Center
Tue 08:06:56 AM 42.9725 -78.0578 265° West 369 425 28,000  Level Cleveland Center
Tue 08:07:56 AM 42.9628 -78.1944 264° West 369 425 28,000  Level Cleveland Center
Tue 08:08:56 AM 42.9531 -78.3308 264° West 369 425 28,000  Level Cleveland Center
Tue 08:09:56 AM 42.9433 -78.4703 265° West 369 425 28,000  Level Cleveland Center
Tue 08:10:56 AM 42.9333 -78.6153 265° West 369 425 28,000  Level Cleveland Center
Tue 08:11:56 AM 42.9147 -78.7603 260° West 381 438 28,000  Level Cleveland Center
Tue 08:12:56 AM 42.8919 -78.9083 258° West 393 452 28,000  Level Cleveland Center
Tue 08:13:56 AM 42.8753 -79.0533 261° West 398 458 28,000  Level Cleveland Center
Tue 08:14:56 AM 42.8481 -79.2097 257° West 403 464 28,000  Level Cleveland Center
Tue 08:15:56 AM 42.8289 -79.3603 260° West 408 470 28,000  Level Cleveland Center
Tue 08:16:56 AM 42.8075 -79.5106 259° West 414 476 28,000  Level Cleveland Center
Tue 08:17:56 AM 42.7839 -79.6639 258° West 414 476 28,000  Level Cleveland Center
Tue 08:18:56 AM 42.7597 -79.8111 257° West 414 476 28,000  Level Cleveland Center
Tue 08:19:56 AM 42.7483 -79.9611 264° West 409 471 28,000  Level Cleveland Center
Tue 08:20:56 AM 42.7406 -80.1139 266° West 409 471 28,000  Level Cleveland Center
Tue 08:21:56 AM 42.7350 -80.2581 267° West 392 451 28,000 -350 Level Cleveland Center
Tue 08:22:56 AM 42.7289 -80.3939 267° West 372 428 27,300 -850 Descending Cleveland Center
Tue 08:23:56 AM 42.7228 -80.5239 266° West 360 414 26,300 -1,000 Descending Cleveland Center
Tue 08:24:56 AM 42.7186 -80.6567 268° West 338 389 25,300 -1,000 Descending Cleveland Center
Tue 08:25:56 AM 42.7100 -80.7839 265° West 331 381 24,300 -1,000 Descending Cleveland Center
Tue 08:26:56 AM 42.7058 -80.8969 267° West 318 366 23,300 -1,000 Descending Cleveland Center
Tue 08:27:56 AM 42.6950 -81.0011 262° West 299 344 22,300 -1,000 Descending Cleveland Center
Tue 08:28:56 AM 42.6819 -81.1000 260° West 272 313 21,300 -1,000 Descending Cleveland Center
Tue 08:29:56 AM 42.6711 -81.1958 261° West 262 302 20,300 -1,000 Descending Cleveland Center
Tue 08:30:56 AM 42.6603 -81.2889 261° West 257 296 19,300 -1,150 Descending Cleveland Center
Tue 08:31:56 AM 42.6492 -81.3878 261° West 262 302 18,000 -1,150 Descending Cleveland Center
Tue 08:32:56 AM 42.6381 -81.4836 261° West 263 303 17,000 -900 Descending Cleveland Center
Tue 08:33:56 AM 42.6289 -81.5708 262° West 263 303 16,200 -1,000 Descending Cleveland Center
Tue 08:34:56 AM 42.6156 -81.6722 260° West 256 295 15,000 -1,000 Descending Cleveland Center
Tue 08:35:56 AM 42.6042 -81.7567 260° West 256 295 14,200 -500 Descending Cleveland Center
Tue 08:36:56 AM 42.5928 -81.8550 261° West 251 289 14,000 -100 Descending Cleveland Center
Tue 08:37:56 AM 42.5814 -81.9450 260° West 251 289 14,000  Level Cleveland Center
Tue 08:38:56 AM 42.5700 -82.0322 260° West 246 283 14,000  Level Cleveland Center
Tue 08:39:56 AM 42.5583 -82.1222 260° West 241 277 14,000  Level Cleveland Center
Tue 08:40:56 AM 42.5486 -82.2122 262° West 241 277 14,000  Level Cleveland Center
Tue 08:41:56 AM 42.5431 -82.3050 265° West 241 277 14,000 -450 Level Cleveland Center
Tue 08:42:56 AM 42.5772 -82.3906 298° West 241 277 13,100 -980 Descending Cleveland Center
Tue 08:43:34 AM 42.5828 -82.4472 278° West 238 274 12,400 -690 Descending Cleveland Center
Tue 08:44:23 AM 42.5444 -82.4939 222° Southwest 240 276 12,100 -293 Descending Cleveland Center
Tue 08:44:56 AM 42.5186 -82.5325 228° Southwest 211 243 12,000  Descending Cleveland Center
Tue 08:45:30 AM 42.4992 -82.5742 238° Southwest 237 273 12,100 -607 Climbing Cleveland Center
Tue 08:46:25 AM 42.4708 -82.6522 244° Southwest 237 273 11,100 -907 Descending Cleveland Center
Tue 08:46:56 AM 42.4575 -82.6883 243° Southwest 231 266 10,800 -593 Descending Cleveland Center
Tue 08:47:56 AM 42.4289 -82.7689 244° Southwest 236 272 10,200 -938 Descending Cleveland Center
Tue 08:48:32 AM 42.4114 -82.8217 246° West 243 280 9,300 -1,423 Descending Cleveland Center
Tue 08:49:33 AM 42.4200 -82.9064 278° West 226 260 7,900 -1,230 Descending Cleveland Center
Tue 08:50:34 AM 42.4350 -82.9914 283° West 220 253 6,800 -1,078 Descending Cleveland Center
Tue 08:51:41 AM 42.4247 -83.0811 261° West 221 254 5,600 -977 Descending Cleveland Center
Tue 08:52:43 AM 42.3897 -83.1611 239° Southwest 233 268 4,700 -1,024 Descending Cleveland Center
Tue 08:53:44 AM 42.3547 -83.2272 234° Southwest 208 239 3,500 -1,180 Descending Cleveland Center

Login

Don't have an account? Register now (free) for customized features, flight alerts, and more!